Terminal Aerodrome Forecast
Issued by NWS Duluth, MN

Home | Current Version | Previous Version | Text Only | Print | Product List | Glossary On
Versions: 1 2 3 4 5 6 7 8 9 10 11 12
000
FTUS43 KDLH 230535
TAFINL
TAF
KINL 230535Z 2306/2406 21006KT P6SM SCT060 BKN100 WS015/23035KT
     FM231200 26009KT P6SM SCT100
     FM231900 29010KT P6SM FEW250
     FM240200 33005KT P6SM SCT250=

USA.gov is the U.S. government's official web portal to all federal, state and local government web resources and services.